createdAt,value
2022-11-14T00:04:35.943Z,7.20
2022-11-14T00:09:57.292Z,6.82
2022-11-14T00:15:18.771Z,7.07
2022-11-14T00:20:40.064Z,7.68
2022-11-14T00:26:01.410Z,6.73
2022-11-14T00:31:22.440Z,7.35
2022-11-14T00:36:43.645Z,5.93
2022-11-14T00:42:04.834Z,6.17
2022-11-14T00:47:26.023Z,5.95
2022-11-14T00:52:47.290Z,5.87
2022-11-14T00:58:08.198Z,5.93
2022-11-14T01:03:29.376Z,5.85
2022-11-14T01:08:51.461Z,5.77
2022-11-14T01:14:12.887Z,6.20
2022-11-14T01:19:34.497Z,6.07
2022-11-14T01:24:58.537Z,5.78
2022-11-14T01:30:19.808Z,5.75
2022-11-14T01:35:41.032Z,4.47
2022-11-14T01:41:02.535Z,6.05
2022-11-14T01:46:31.579Z,5.23
2022-11-14T01:52:01.225Z,6.07
2022-11-14T01:57:39.262Z,2.85
2022-11-14T02:03:01.285Z,5.53
2022-11-14T02:08:24.589Z,5.68
2022-11-14T02:13:46.368Z,5.43
2022-11-14T02:19:07.398Z,5.75
2022-11-14T02:24:28.657Z,5.00
2022-11-14T02:29:49.652Z,5.70
2022-11-14T02:35:11.408Z,5.03
2022-11-14T02:40:32.942Z,5.50
2022-11-14T02:45:54.150Z,4.63
2022-11-14T02:51:15.518Z,5.32
2022-11-14T02:56:36.317Z,4.03
2022-11-14T03:01:57.607Z,5.18
2022-11-14T03:07:19.118Z,5.00
2022-11-14T03:12:40.497Z,5.68
2022-11-14T03:18:01.270Z,4.82
2022-11-14T03:23:22.358Z,5.20
2022-11-14T03:28:43.839Z,5.85
2022-11-14T03:34:04.981Z,5.57
2022-11-14T03:39:26.669Z,5.32
2022-11-14T03:44:48.009Z,5.93
2022-11-14T03:50:09.494Z,5.00
2022-11-14T03:55:30.771Z,3.47
2022-11-14T04:00:51.923Z,5.10
2022-11-14T04:06:13.552Z,3.42
2022-11-14T04:11:34.982Z,4.47
2022-11-14T04:16:56.459Z,3.60
2022-11-14T04:22:17.488Z,4.45
2022-11-14T04:27:38.760Z,5.47
2022-11-14T04:33:00.200Z,3.92
2022-11-14T04:38:21.598Z,3.72
2022-11-14T04:43:46.757Z,3.63
2022-11-14T04:49:10.849Z,5.18
2022-11-14T04:54:31.852Z,4.53
2022-11-14T04:59:52.844Z,4.75
2022-11-14T05:05:13.979Z,4.97
2022-11-14T05:10:35.516Z,4.53
2022-11-14T05:16:00.365Z,4.18
2022-11-14T05:21:21.883Z,5.13
2022-11-14T05:26:43.171Z,4.18
2022-11-14T05:32:04.614Z,4.43
2022-11-14T05:37:26.176Z,3.00
2022-11-14T05:42:47.435Z,4.65
2022-11-14T05:48:08.553Z,3.67
2022-11-14T05:53:31.045Z,4.63
2022-11-14T05:58:52.084Z,4.78
2022-11-14T06:04:15.681Z,4.83
2022-11-14T06:09:36.784Z,5.28
2022-11-14T06:14:58.405Z,5.27
2022-11-14T06:20:19.492Z,5.97
2022-11-14T06:25:40.782Z,5.93
2022-11-14T06:31:04.295Z,5.27
2022-11-14T06:36:25.584Z,4.32
2022-11-14T06:41:46.905Z,5.33
2022-11-14T06:47:07.895Z,4.38
2022-11-14T06:52:29.784Z,4.18
2022-11-14T06:57:55.052Z,5.27
2022-11-14T07:03:16.572Z,5.90
2022-11-14T07:08:38.092Z,4.63
2022-11-14T07:14:01.375Z,5.43
2022-11-14T07:19:22.705Z,5.68
2022-11-14T07:24:43.764Z,4.90
2022-11-14T07:30:05.239Z,6.60
2022-11-14T07:35:26.881Z,7.10
2022-11-14T07:41:01.432Z,6.57
2022-11-14T07:46:22.745Z,6.07
2022-11-14T07:51:44.106Z,5.67
2022-11-14T07:57:05.213Z,5.50
2022-11-14T08:02:26.411Z,6.00
2022-11-14T08:07:50.830Z,4.68
2022-11-14T08:18:53.615Z,5.03
2022-11-14T08:24:15.216Z,6.15
2022-11-14T08:29:36.879Z,5.27
2022-11-14T08:34:58.049Z,5.80
2022-11-14T08:40:19.303Z,6.38
2022-11-14T08:45:40.569Z,7.00
2022-11-14T08:51:06.944Z,6.50
2022-11-14T08:56:28.299Z,4.90
2022-11-14T09:01:49.574Z,6.65
2022-11-14T09:07:11.170Z,6.75
2022-11-14T09:12:33.110Z,6.63
2022-11-14T09:17:58.378Z,7.30
2022-11-14T09:23:19.885Z,7.37
2022-11-14T09:28:41.915Z,6.97
2022-11-14T09:34:02.985Z,7.03
2022-11-14T09:39:24.039Z,7.43
2022-11-14T09:45:04.424Z,7.40
2022-11-14T09:50:33.434Z,7.20
2022-11-14T09:55:54.635Z,5.78
2022-11-14T10:01:35.453Z,6.18
2022-11-14T10:07:13.593Z,5.93
2022-11-14T10:13:03.955Z,6.25
2022-11-14T10:18:51.202Z,6.67
2022-11-14T10:24:44.233Z,5.43
2022-11-14T10:30:14.953Z,7.72
2022-11-14T10:35:47.355Z,4.73
2022-11-14T10:41:19.223Z,8.25
2022-11-14T10:46:56.558Z,8.53
2022-11-14T10:52:21.087Z,9.15
2022-11-14T10:57:43.810Z,7.40
2022-11-14T11:03:04.809Z,8.67
2022-11-14T11:08:44.893Z,4.85
2022-11-14T11:14:18.153Z,6.37
2022-11-14T11:19:40.279Z,6.65
2022-11-14T11:25:01.614Z,8.25
2022-11-14T11:30:23.927Z,7.93
2022-11-14T11:35:47.974Z,7.90
2022-11-14T11:42:07.834Z,5.73
2022-11-14T11:47:19.097Z,6.70
2022-11-14T11:53:02.655Z,7.47
2022-11-14T11:58:33.115Z,8.70
2022-11-14T12:03:55.232Z,5.65
2022-11-14T12:09:29.466Z,7.90
2022-11-14T12:15:04.194Z,8.27
2022-11-14T12:20:49.352Z,7.45
2022-11-14T12:26:39.959Z,8.90
2022-11-14T12:32:07.180Z,8.07
2022-11-14T12:37:45.370Z,6.70
2022-11-14T12:43:34.677Z,10.00
2022-11-14T12:48:57.729Z,8.95
2022-11-14T12:54:44.236Z,7.93
2022-11-14T13:00:09.378Z,8.52
2022-11-14T13:05:39.739Z,9.87
2022-11-14T13:11:00.794Z,10.05
2022-11-14T13:16:48.684Z,9.30
2022-11-14T13:22:12.746Z,7.90
2022-11-14T13:28:05.480Z,10.23
2022-11-14T13:33:53.385Z,10.87
2022-11-14T13:39:26.816Z,9.85
2022-11-14T13:45:00.636Z,10.65
2022-11-14T13:50:33.186Z,9.20
2022-11-14T13:55:59.981Z,9.40
2022-11-14T14:01:30.557Z,9.17
2022-11-14T14:07:31.111Z,14.48
2022-11-14T14:13:04.346Z,11.25
2022-11-14T14:18:45.842Z,9.90
2022-11-14T14:24:21.396Z,10.23
2022-11-14T14:29:54.877Z,11.00
2022-11-14T14:35:27.617Z,7.30
2022-11-14T14:40:48.994Z,10.73
2022-11-14T14:46:11.049Z,7.30
2022-11-14T14:51:35.706Z,11.57
2022-11-14T14:57:03.776Z,10.33
2022-11-14T15:02:26.074Z,10.43
2022-11-14T15:07:49.714Z,10.80
2022-11-14T15:13:16.618Z,9.63
2022-11-14T15:18:38.756Z,11.40
2022-11-14T15:24:20.444Z,10.73
2022-11-14T15:30:19.815Z,10.30
2022-11-14T15:35:41.526Z,11.40
2022-11-14T15:41:25.505Z,9.47
2022-11-14T15:46:48.300Z,11.55
2022-11-14T15:52:21.954Z,12.77
2022-11-14T15:57:48.402Z,10.98
2022-11-14T16:03:20.914Z,12.18
2022-11-14T16:08:41.985Z,11.80
2022-11-14T16:14:03.684Z,11.43
2022-11-14T16:19:25.013Z,12.37
2022-11-14T16:24:46.250Z,12.35
2022-11-14T16:30:08.907Z,9.85
2022-11-14T16:35:30.119Z,11.13
2022-11-14T16:40:51.633Z,12.27
2022-11-14T16:46:13.156Z,11.70
2022-11-14T16:51:51.255Z,9.13
2022-11-14T16:57:12.884Z,10.32
2022-11-14T17:02:34.181Z,11.27
2022-11-14T17:07:57.442Z,8.25
2022-11-14T17:13:24.190Z,11.13
2022-11-14T17:18:45.633Z,11.35
2022-11-14T17:24:07.230Z,11.73
2022-11-14T17:29:28.550Z,10.77
2022-11-14T17:34:50.022Z,11.10
2022-11-14T17:40:15.497Z,10.77
2022-11-14T17:45:40.945Z,7.18
2022-11-14T17:51:07.521Z,8.60
2022-11-14T17:56:28.804Z,11.97
2022-11-14T18:01:50.274Z,11.73
2022-11-14T18:07:12.085Z,8.93
2022-11-14T18:12:33.270Z,12.48
2022-11-14T18:17:54.492Z,6.60
2022-11-14T18:23:15.600Z,10.90
2022-11-14T18:28:36.736Z,11.55
2022-11-14T18:33:58.414Z,10.87
2022-11-14T18:39:19.856Z,9.80
2022-11-14T18:44:41.592Z,11.77
2022-11-14T18:50:04.164Z,12.87
2022-11-14T18:55:25.476Z,13.27
2022-11-14T19:00:46.912Z,12.13
2022-11-14T19:06:10.372Z,11.00
2022-11-14T19:11:49.964Z,10.50
2022-11-14T19:17:11.794Z,7.80
2022-11-14T19:22:33.114Z,7.95
2022-11-14T19:27:54.206Z,11.90
2022-11-14T19:33:15.104Z,11.55
2022-11-14T19:38:36.781Z,10.75
2022-11-14T19:44:00.236Z,11.83
2022-11-14T19:49:21.611Z,10.48
2022-11-14T19:54:43.515Z,9.87
2022-11-14T20:00:05.134Z,10.30
2022-11-14T20:05:26.294Z,10.63
2022-11-14T20:11:02.336Z,11.63
2022-11-14T20:16:26.642Z,9.55
2022-11-14T20:21:49.697Z,10.53
2022-11-14T20:27:11.303Z,12.02
2022-11-14T20:32:32.412Z,9.10
2022-11-14T20:37:53.754Z,8.30
2022-11-14T20:43:14.812Z,10.27
2022-11-14T20:48:36.063Z,10.00
2022-11-14T20:53:57.216Z,10.02
2022-11-14T20:59:18.323Z,10.57
2022-11-14T21:04:39.595Z,9.80
2022-11-14T21:10:19.251Z,11.50
2022-11-14T21:15:40.555Z,11.00
2022-11-14T21:21:08.275Z,9.25
2022-11-14T21:26:32.566Z,9.75
2022-11-14T21:31:54.887Z,7.57
2022-11-14T21:37:16.143Z,9.13
2022-11-14T21:42:37.210Z,8.60
2022-11-14T21:47:58.646Z,8.10
2022-11-14T21:53:19.735Z,9.10
2022-11-14T21:58:41.644Z,8.13
2022-11-14T22:04:14.865Z,10.10
2022-11-14T22:09:39.912Z,8.23
2022-11-14T22:15:04.284Z,9.45
2022-11-14T22:20:25.515Z,7.82
2022-11-14T22:25:54.083Z,9.33
2022-11-14T22:31:20.556Z,9.40
2022-11-14T22:36:41.797Z,10.17
2022-11-14T22:42:03.213Z,9.40
2022-11-14T22:47:24.374Z,9.68
2022-11-14T22:52:45.665Z,9.00
2022-11-14T22:58:06.920Z,9.98
2022-11-14T23:03:29.030Z,8.63
2022-11-14T23:08:50.300Z,9.13
2022-11-14T23:14:14.539Z,7.10
2022-11-14T23:19:35.592Z,6.93
2022-11-14T23:24:56.685Z,8.57
2022-11-14T23:30:17.914Z,9.10
2022-11-14T23:35:39.056Z,8.23
2022-11-14T23:41:02.306Z,9.88
2022-11-14T23:46:23.615Z,8.57
2022-11-14T23:51:44.850Z,7.93
2022-11-14T23:57:05.939Z,7.40
